Gas Renovatio — 9HA2845 — position and weather

sailwx.info

Track history (hours):
 
Tides and Currents Weather Stations Pressure Air Temp Water Temp Dewpoint Dewpoint Depression Visibility Wind Speed Wind Dir Waves Ship Positions

Gas Renovatio

Last reported at 2014-Jul-22 16:31 UTC. Time now 2014-Jul-22 17:29 UTC.
Position N 38°32' W 028°37'.

Length 99 m; draft 5.3 m.

Type: Tanker. MMSI: 256325000.

Date/timePositionNaut miles runAvg speedWind from/ knotsBaromVisibWave heightAir tempDewpointWater temp
2014-Jul-22 16:31N 38°32' W 028°37'0 0.0
2014-Jul-22 15:31N 38°32' W 028°37'0 0.0
2014-Jul-22 14:32N 38°32' W 028°37'0 0.4
2014-Jul-22 13:33N 38°32' W 028°37'1 0.5
2014-Jul-22 12:32N 38°32' W 028°37'0 0.0
2014-Jul-22 11:32N 38°32' W 028°37'0 0.0
2014-Jul-22 10:32N 38°32' W 028°37'0 0.0
2014-Jul-22 09:32N 38°32' W 028°37'0 0.0
2014-Jul-22 08:32N 38°32' W 028°37'0 0.1
2014-Jul-22 07:33N 38°32' W 028°37'8 8.3
2014-Jul-22 06:34N 38°36' W 028°27'9 9.2
2014-Jul-22 05:33N 38°34' W 028°16'9 8.8
2014-Jul-22 04:33N 38°31' W 028°05'9 9.2
2014-Jul-22 03:33N 38°29' W 027°54'1010.0
2014-Jul-22 02:33N 38°26' W 027°41'9 8.9
2014-Jul-22 01:33N 38°24' W 027°30'9 8.7
2014-Jul-22 00:34N 38°22' W 027°20'8 8.4
2014-Jul-21 23:33N 38°20' W 027°09'9 8.5
2014-Jul-21 22:33N 38°18' W 026°59'9 8.6
2014-Jul-21 21:33N 38°18' W 026°48'8 8.5
2014-Jul-21 20:33N 38°17' W 026°37'2 8.6
2014-Jul-21 20:18N 38°17' W 026°34'6 8.2
2014-Jul-21 19:34N 38°17' W 026°26'8 8.4
2014-Jul-21 18:33N 38°17' W 026°16'8 8.4
2014-Jul-21 17:33N 38°17' W 026°05'9 8.6
2014-Jul-21 16:33N 38°17' W 025°54'9 9.0
2014-Jul-21 15:33N 38°16' W 025°43'9 9.3
2014-Jul-21 14:34N 38°16' W 025°31'9 9.3
2014-Jul-21 13:33N 38°16' W 025°19'9 8.9
2014-Jul-21 12:33N 38°16' W 025°08'9 9.3
2014-Jul-21 11:33N 38°15' W 024°56'9 9.0
2014-Jul-21 10:33N 38°15' W 024°44'9 9.0
2014-Jul-21 09:34N 38°15' W 024°33'9 9.1
2014-Jul-21 08:33N 38°14' W 024°21'9 9.0
2014-Jul-21 07:33N 38°14' W 024°10'9 9.1
2014-Jul-21 06:33N 38°14' W 023°58'  
2014-Jul-18 01:17N 37°55' W 009°24'7 9.4
2014-Jul-18 00:33N 37°55' W 009°16'9 9.1
2014-Jul-17 23:33N 37°55' W 009°04'9 8.6
2014-Jul-17 22:33N 37°56' W 008°53'2 1.5
2014-Jul-17 21:31N 37°57' W 008°53'0 0.0
2014-Jul-17 20:28N 37°57' W 008°53'0 0.0
2014-Jul-17 19:31N 37°57' W 008°53'0 0.0
2014-Jul-17 18:31N 37°57' W 008°53'0 0.0
2014-Jul-17 17:31N 37°57' W 008°53'0 0.0
2014-Jul-17 16:31N 37°57' W 008°53'0 0.0
2014-Jul-17 15:31N 37°57' W 008°53'0 0.0
2014-Jul-17 14:31N 37°57' W 008°53'0 0.0
2014-Jul-17 13:31N 37°57' W 008°53'0 0.0
2014-Jul-17 12:31N 37°57' W 008°53'0 0.0
2014-Jul-17 11:31N 37°57' W 008°53'0 0.0
2014-Jul-17 10:31N 37°57' W 008°53'0 0.0
2014-Jul-17 09:31N 37°57' W 008°53'0 0.0
2014-Jul-17 08:31N 37°57' W 008°53'0 0.0
2014-Jul-17 07:31N 37°57' W 008°53'0 0.0
2014-Jul-17 06:31N 37°57' W 008°53'0 0.0
2014-Jul-17 05:31N 37°57' W 008°53'0 0.0
2014-Jul-17 04:31N 37°57' W 008°53'0 0.0
2014-Jul-17 03:31N 37°57' W 008°53'0 0.0
2014-Jul-17 02:31N 37°57' W 008°53'0 0.0
2014-Jul-17 01:31N 37°57' W 008°53'0 0.0
2014-Jul-17 00:28N 37°57' W 008°53'0 0.0
2014-Jul-16 23:31N 37°57' W 008°53'0 0.0
2014-Jul-16 22:31N 37°57' W 008°53'0 0.0
2014-Jul-16 21:31N 37°57' W 008°53'0 0.0
2014-Jul-16 20:31N 37°57' W 008°53'0 0.0
2014-Jul-16 19:31N 37°57' W 008°53'0 0.0
2014-Jul-16 18:31N 37°57' W 008°53'0 0.0
2014-Jul-16 17:31N 37°57' W 008°53'0 0.0
2014-Jul-16 16:31N 37°57' W 008°53'0 0.0
2014-Jul-16 15:31N 37°57' W 008°53'0 0.0
2014-Jul-16 14:32N 37°57' W 008°53'2 2.4
2014-Jul-16 13:33N 37°57' W 008°56'1010.1
2014-Jul-16 12:33N 38°02' W 009°07'1010.5
2014-Jul-16 11:33N 38°06' W 009°19'1110.7
2014-Jul-16 10:33N 38°10' W 009°32'1010.2
2014-Jul-16 09:33N 38°14' W 009°44'1010.1
2014-Jul-16 08:33N 38°17' W 009°56'9 9.4
2014-Jul-16 07:34N 38°22' W 010°06'1010.3
2014-Jul-16 06:33N 38°33' W 010°09'1210.1
2014-Jul-16 05:24N 38°44' W 010°12'1110.1
2014-Jul-16 04:20N 38°55' W 010°12'8 9.1
2014-Jul-16 03:30N 39°02' W 010°10'  
2014-Jul-13 22:19N 38°42' W 011°05'6 8.3
2014-Jul-13 21:33N 38°37' W 011°10'9 8.4
2014-Jul-13 20:32N 38°30' W 011°16'8 8.2
2014-Jul-13 19:33N 38°24' W 011°22'9 8.2
2014-Jul-13 18:26N 38°16' W 011°29'7 7.9
2014-Jul-13 17:33N 38°11' W 011°34'7 7.4
2014-Jul-13 16:33N 38°05' W 011°40'9 7.4
2014-Jul-13 15:19N 37°57' W 011°47'5 7.1
2014-Jul-13 14:32N 37°53' W 011°51'16 7.4
2014-Jul-13 12:22N 37°40' W 012°02'8 7.1
2014-Jul-13 11:11N 37°34' W 012°09'21 7.2
2014-Jul-13 08:17N 37°17' W 012°25'20 7.1
2014-Jul-13 05:29N 37°01' W 012°39'7 7.0
2014-Jul-13 04:31N 36°55' W 012°44'7 7.2
2014-Jul-13 03:32N 36°49' W 012°49'8 7.7
2014-Jul-13 02:32N 36°43' W 012°55'8 7.9
2014-Jul-13 01:33N 36°37' W 013°01'7 7.6
2014-Jul-13 00:33N 36°31' W 013°06'8 7.8
2014-Jul-12 23:32N 36°24' W 013°12'8 7.6
2014-Jul-12 22:31N 36°18' W 013°18'7 7.6
2014-Jul-12 21:33N 36°12' W 013°23'8 7.5
2014-Jul-12 20:32N 36°06' W 013°29'8 7.8
2014-Jul-12 19:33N 36°00' W 013°35'9 8.1
2014-Jul-12 18:25N 35°53' W 013°41'8 8.1
2014-Jul-12 17:24N 35°46' W 013°47'7 7.8
2014-Jul-12 16:32N 35°41' W 013°52'  
Track history (hours):
 
Tides and Currents Weather Stations Pressure Air Temp Water Temp Dewpoint Dewpoint Depression Visibility Wind Speed Wind Dir Waves Ship Positions

Gas Renovatio

Last reported at 2014-Jul-22 16:31 UTC. Time now 2014-Jul-22 17:29 UTC.
Position N 38°32' W 028°37'.

Length 99 m; draft 5.3 m.

Type: Tanker. MMSI: 256325000.

Date/timePositionNaut miles runAvg speedWind from/ knotsBaromVisibWave heightAir tempDewpointWater temp
2014-Jul-22 16:31N 38°32' W 028°37'0 0.0
2014-Jul-22 15:31N 38°32' W 028°37'0 0.0
2014-Jul-22 14:32N 38°32' W 028°37'0 0.4
2014-Jul-22 13:33N 38°32' W 028°37'1 0.5
2014-Jul-22 12:32N 38°32' W 028°37'0 0.0
2014-Jul-22 11:32N 38°32' W 028°37'0 0.0
2014-Jul-22 10:32N 38°32' W 028°37'0 0.0
2014-Jul-22 09:32N 38°32' W 028°37'0 0.0
2014-Jul-22 08:32N 38°32' W 028°37'0 0.1
2014-Jul-22 07:33N 38°32' W 028°37'8 8.3
2014-Jul-22 06:34N 38°36' W 028°27'9 9.2
2014-Jul-22 05:33N 38°34' W 028°16'9 8.8
2014-Jul-22 04:33N 38°31' W 028°05'9 9.2
2014-Jul-22 03:33N 38°29' W 027°54'1010.0
2014-Jul-22 02:33N 38°26' W 027°41'9 8.9
2014-Jul-22 01:33N 38°24' W 027°30'9 8.7
2014-Jul-22 00:34N 38°22' W 027°20'8 8.4
2014-Jul-21 23:33N 38°20' W 027°09'9 8.5
2014-Jul-21 22:33N 38°18' W 026°59'9 8.6
2014-Jul-21 21:33N 38°18' W 026°48'8 8.5
2014-Jul-21 20:33N 38°17' W 026°37'2 8.6
2014-Jul-21 20:18N 38°17' W 026°34'6 8.2
2014-Jul-21 19:34N 38°17' W 026°26'8 8.4
2014-Jul-21 18:33N 38°17' W 026°16'8 8.4
2014-Jul-21 17:33N 38°17' W 026°05'9 8.6
2014-Jul-21 16:33N 38°17' W 025°54'9 9.0
2014-Jul-21 15:33N 38°16' W 025°43'9 9.3
2014-Jul-21 14:34N 38°16' W 025°31'9 9.3
2014-Jul-21 13:33N 38°16' W 025°19'9 8.9
2014-Jul-21 12:33N 38°16' W 025°08'9 9.3
2014-Jul-21 11:33N 38°15' W 024°56'9 9.0
2014-Jul-21 10:33N 38°15' W 024°44'9 9.0
2014-Jul-21 09:34N 38°15' W 024°33'9 9.1
2014-Jul-21 08:33N 38°14' W 024°21'9 9.0
2014-Jul-21 07:33N 38°14' W 024°10'9 9.1
2014-Jul-21 06:33N 38°14' W 023°58'  
2014-Jul-18 01:17N 37°55' W 009°24'7 9.4
2014-Jul-18 00:33N 37°55' W 009°16'9 9.1
2014-Jul-17 23:33N 37°55' W 009°04'9 8.6
2014-Jul-17 22:33N 37°56' W 008°53'2 1.5
2014-Jul-17 21:31N 37°57' W 008°53'0 0.0
2014-Jul-17 20:28N 37°57' W 008°53'0 0.0
2014-Jul-17 19:31N 37°57' W 008°53'0 0.0
2014-Jul-17 18:31N 37°57' W 008°53'0 0.0
2014-Jul-17 17:31N 37°57' W 008°53'0 0.0
2014-Jul-17 16:31N 37°57' W 008°53'0 0.0
2014-Jul-17 15:31N 37°57' W 008°53'0 0.0
2014-Jul-17 14:31N 37°57' W 008°53'0 0.0
2014-Jul-17 13:31N 37°57' W 008°53'0 0.0
2014-Jul-17 12:31N 37°57' W 008°53'0 0.0
2014-Jul-17 11:31N 37°57' W 008°53'0 0.0
2014-Jul-17 10:31N 37°57' W 008°53'0 0.0
2014-Jul-17 09:31N 37°57' W 008°53'0 0.0
2014-Jul-17 08:31N 37°57' W 008°53'0 0.0
2014-Jul-17 07:31N 37°57' W 008°53'0 0.0
2014-Jul-17 06:31N 37°57' W 008°53'0 0.0
2014-Jul-17 05:31N 37°57' W 008°53'0 0.0
2014-Jul-17 04:31N 37°57' W 008°53'0 0.0
2014-Jul-17 03:31N 37°57' W 008°53'0 0.0
2014-Jul-17 02:31N 37°57' W 008°53'0 0.0
2014-Jul-17 01:31N 37°57' W 008°53'0 0.0
2014-Jul-17 00:28N 37°57' W 008°53'0 0.0
2014-Jul-16 23:31N 37°57' W 008°53'0 0.0
2014-Jul-16 22:31N 37°57' W 008°53'0 0.0
2014-Jul-16 21:31N 37°57' W 008°53'0 0.0
2014-Jul-16 20:31N 37°57' W 008°53'0 0.0
2014-Jul-16 19:31N 37°57' W 008°53'0 0.0
2014-Jul-16 18:31N 37°57' W 008°53'0 0.0
2014-Jul-16 17:31N 37°57' W 008°53'0 0.0
2014-Jul-16 16:31N 37°57' W 008°53'0 0.0
2014-Jul-16 15:31N 37°57' W 008°53'0 0.0
2014-Jul-16 14:32N 37°57' W 008°53'2 2.4
2014-Jul-16 13:33N 37°57' W 008°56'1010.1
2014-Jul-16 12:33N 38°02' W 009°07'1010.5
2014-Jul-16 11:33N 38°06' W 009°19'1110.7
2014-Jul-16 10:33N 38°10' W 009°32'1010.2
2014-Jul-16 09:33N 38°14' W 009°44'1010.1
2014-Jul-16 08:33N 38°17' W 009°56'9 9.4
2014-Jul-16 07:34N 38°22' W 010°06'1010.3
2014-Jul-16 06:33N 38°33' W 010°09'1210.1
2014-Jul-16 05:24N 38°44' W 010°12'1110.1
2014-Jul-16 04:20N 38°55' W 010°12'8 9.1
2014-Jul-16 03:30N 39°02' W 010°10'  
2014-Jul-13 22:19N 38°42' W 011°05'6 8.3
2014-Jul-13 21:33N 38°37' W 011°10'9 8.4
2014-Jul-13 20:32N 38°30' W 011°16'8 8.2
2014-Jul-13 19:33N 38°24' W 011°22'9 8.2
2014-Jul-13 18:26N 38°16' W 011°29'7 7.9
2014-Jul-13 17:33N 38°11' W 011°34'7 7.4
2014-Jul-13 16:33N 38°05' W 011°40'9 7.4
2014-Jul-13 15:19N 37°57' W 011°47'5 7.1
2014-Jul-13 14:32N 37°53' W 011°51'16 7.4
2014-Jul-13 12:22N 37°40' W 012°02'8 7.1
2014-Jul-13 11:11N 37°34' W 012°09'21 7.2
2014-Jul-13 08:17N 37°17' W 012°25'20 7.1
2014-Jul-13 05:29N 37°01' W 012°39'7 7.0
2014-Jul-13 04:31N 36°55' W 012°44'7 7.2
2014-Jul-13 03:32N 36°49' W 012°49'8 7.7
2014-Jul-13 02:32N 36°43' W 012°55'8 7.9
2014-Jul-13 01:33N 36°37' W 013°01'7 7.6
2014-Jul-13 00:33N 36°31' W 013°06'8 7.8
2014-Jul-12 23:32N 36°24' W 013°12'8 7.6
2014-Jul-12 22:31N 36°18' W 013°18'7 7.6
2014-Jul-12 21:33N 36°12' W 013°23'8 7.5
2014-Jul-12 20:32N 36°06' W 013°29'8 7.8
2014-Jul-12 19:33N 36°00' W 013°35'9 8.1
2014-Jul-12 18:25N 35°53' W 013°41'8 8.1
2014-Jul-12 17:24N 35°46' W 013°47'7 7.8
2014-Jul-12 16:32N 35°41' W 013°52'  

Dump ship's entire track history